Goldendale, WA (98620)

8:20 PM PDT on August 24, 2016 (GMT -0700)
Northeast Goldendale | | Change Station
Active Advisory: Fire Weather Warning

Elev 1683 ft 45.83 °N, 120.80 °W | Updated 8 seconds ago

Clear
Clear
75.6 °F
Feels Like 75 °F
N
4.9
Wind Variable Wind from NE
Gusts 6.3 mph

Today
High -- | Low -- °F
--% Chance of Precip.
Yesterday
High -- | Low -- °F
Precip. -- in
Pressure 30.05 in
Visibility 10.0 miles
Clouds Clear
Heat Index 75 °F
Dew Point 21 °F
Humidity 13%
Rainfall in
Snow Depth Not available.
6:15 AM 7:54 PM
Waning Gibbous, 50% visible
METAR KDLS 250253Z AUTO 07007KT 10SM CLR 28/04 A3005 RMK AO2 SLP174 T02780044 53003
Pressure 30.05 in
Visibility 10.0 miles
Clouds Clear
Heat Index 75 °F
Dew Point 21 °F
Humidity 13%
Rainfall in
Snow Depth Not available.
6:15 AM 7:54 PM
Waning Gibbous, 50% visible
METAR KDLS 250253Z AUTO 07007KT 10SM CLR 28/04 A3005 RMK AO2 SLP174 T02780044 53003

10-Day Weather Forecast

Almanac

Astronomy

Aug. 24, 2016 Rise Set
Actual Time
Civil Twilight
Nautical Twilight
Astronomical Twilight
Moon
Length of Visible Light
Length of Day
Tomorrow will be .
, % of the Moon is Illuminated

Today's Extremes

State Highs State Lows

Community

WunderPhotos

Upload Photos

1,934,787 photos uploaded!

WunderBlog® & News

Nearby

Air Quality

  Air Quality AQ Index Pollutant
Not available.

Snow Depth

Station Depth Elevation

Earthquake Activity

City Distance Mag. Time & Date
Minimum magnitude displayed is 2.5.

Coastal Water Temperatures

Place Temperature

Stations

Nearby Weather Stations

Station Location Temp. Windchill Dew Point Humidity Wind Precip. Elev Updated Type
                   

Watches & Warnings

Fire Weather Warning
Issued: 7:48 PM PDT Aug. 24, 2016 – National Weather Service

... Red flag warning remains in effect from noon to 9 PM PDT
Thursday for significantly unstable conditions for fire weather
zones or601... or602... or603... or605... or606... or607... or608...
or612... wa601... wa602... wa604 and wa660...

* affected area... in Oregon... fire weather zones 601... 602...
603... 605... 606... 607... 608 and 612. In Washington... fire
weather zones 601... 602... 604 and 660.

* Haines... mid level Haines 6 Thursday afternoon with dry and
unstable conditions.

* Relative humidity... as low as 16 percent away from the
immediate coast.

* Temperatures... peaking Thursday afternoon in the mid to upper
90s... except around 90 degrees in the north Oregon Coast Range
and Cascade valleys.

* Impacts... fire starts will have the potential for rapid spread
from spotting and for plume dominated growth due to
instability.

Precautionary/preparedness actions...

A red flag warning means that critical fire weather conditions
are either occurring now... .or will shortly. A combination of
strong winds... low relative humidity... and warm temperatures can
contribute to extreme fire behavior.



For more information from NOAA/National Weather Service visit...
http://weather.Gov/Portland (all lower case)